createdAt,value
2022-08-14T00:02:02.425Z,85.10
2022-08-14T00:04:35.623Z,85.10
2022-08-14T00:07:09.719Z,85.90
2022-08-14T00:09:39.941Z,86.20
2022-08-14T00:12:24.898Z,86.40
2022-08-14T00:15:04.133Z,86.70
2022-08-14T00:17:37.896Z,87.20
2022-08-14T00:20:08.493Z,86.80
2022-08-14T00:22:56.119Z,87.20
2022-08-14T00:25:23.163Z,88.30
2022-08-14T00:27:54.214Z,88.80
2022-08-14T00:30:22.053Z,88.20
2022-08-14T00:32:52.728Z,88.00
2022-08-14T00:36:37.317Z,88.60
2022-08-14T00:38:10.842Z,88.50
2022-08-14T00:40:37.814Z,89.30
2022-08-14T00:43:06.031Z,89.00
2022-08-14T00:45:33.095Z,89.00
2022-08-14T00:48:00.257Z,89.10
2022-08-14T00:50:31.066Z,90.10
2022-08-14T00:53:00.276Z,88.70
2022-08-14T00:55:30.129Z,89.50
2022-08-14T00:58:18.560Z,90.00
2022-08-14T01:00:57.689Z,90.00
2022-08-14T01:03:26.404Z,90.00
2022-08-14T01:05:53.264Z,90.00
2022-08-14T01:08:57.480Z,90.10
2022-08-14T01:11:19.433Z,89.90
2022-08-14T01:13:55.807Z,89.10
2022-08-14T01:16:31.362Z,89.10
2022-08-14T01:19:17.359Z,89.00
2022-08-14T01:21:53.087Z,89.30
2022-08-14T01:24:28.782Z,89.50
2022-08-14T01:27:00.229Z,89.70
2022-08-14T01:29:58.578Z,89.50
2022-08-14T01:32:22.764Z,89.80
2022-08-14T01:35:20.333Z,89.70
2022-08-14T01:37:54.795Z,90.20
2022-08-14T01:40:25.589Z,90.10
2022-08-14T01:43:02.577Z,90.40
2022-08-14T01:45:31.330Z,90.70
2022-08-14T01:48:07.135Z,90.80
2022-08-14T01:50:41.842Z,90.80
2022-08-14T01:53:09.563Z,90.70
2022-08-14T01:55:38.580Z,90.60
2022-08-14T01:58:20.027Z,90.60
2022-08-14T02:00:56.482Z,90.50
2022-08-14T02:03:29.854Z,90.70
2022-08-14T02:05:59.544Z,90.90
2022-08-14T02:08:34.709Z,91.10
2022-08-14T02:11:22.263Z,91.10
2022-08-14T02:13:58.461Z,91.20
2022-08-14T02:16:27.625Z,91.30
2022-08-14T02:18:58.116Z,91.40
2022-08-14T02:21:26.936Z,91.50
2022-08-14T02:23:55.566Z,91.40
2022-08-14T02:26:29.774Z,91.60
2022-08-14T02:29:03.263Z,91.60
2022-08-14T02:31:43.274Z,91.60
2022-08-14T02:34:27.372Z,91.70
2022-08-14T02:37:06.568Z,91.90
2022-08-14T02:39:37.236Z,91.80
2022-08-14T02:42:05.774Z,91.80
2022-08-14T02:44:39.647Z,91.90
2022-08-14T02:47:14.751Z,92.10
2022-08-14T02:49:42.690Z,92.30
2022-08-14T02:52:56.454Z,92.70
2022-08-14T02:54:57.518Z,92.40
2022-08-14T02:57:40.141Z,92.40
2022-08-14T03:00:09.970Z,92.40
2022-08-14T03:02:56.513Z,92.30
2022-08-14T03:05:24.559Z,92.30
2022-08-14T03:07:51.844Z,92.30
2022-08-14T03:10:26.821Z,92.20
2022-08-14T03:12:59.124Z,92.30
2022-08-14T03:15:27.867Z,92.40
2022-08-14T03:17:57.576Z,92.40
2022-08-14T03:20:27.942Z,92.40
2022-08-14T03:22:59.431Z,92.50
2022-08-14T03:25:28.407Z,92.50
2022-08-14T03:27:58.510Z,92.50
2022-08-14T03:30:39.207Z,92.70
2022-08-14T03:33:10.591Z,93.00
2022-08-14T03:36:05.241Z,93.10
2022-08-14T03:39:14.855Z,93.10
2022-08-14T03:41:23.333Z,93.00
2022-08-14T03:45:18.931Z,93.00
2022-08-14T03:46:55.022Z,92.90
2022-08-14T03:49:29.468Z,92.90
2022-08-14T03:52:00.370Z,92.80
2022-08-14T03:54:28.707Z,93.00
2022-08-14T03:57:00.639Z,93.10
2022-08-14T03:59:31.487Z,93.10
2022-08-14T04:02:01.847Z,93.30
2022-08-14T04:04:32.430Z,93.40
2022-08-14T04:07:04.264Z,93.50
2022-08-14T04:09:32.172Z,93.50
2022-08-14T04:12:00.105Z,93.50
2022-08-14T04:14:29.139Z,93.50
2022-08-14T04:16:56.284Z,93.50
2022-08-14T04:19:24.572Z,93.40
2022-08-14T04:22:03.435Z,93.50
2022-08-14T04:24:39.103Z,93.60
2022-08-14T04:27:11.745Z,93.50
2022-08-14T04:29:44.931Z,93.60
2022-08-14T04:33:10.255Z,93.60
2022-08-14T04:35:00.821Z,93.60
2022-08-14T04:37:45.957Z,93.70
2022-08-14T04:40:33.124Z,93.70
2022-08-14T04:43:21.011Z,93.70
2022-08-14T04:45:51.038Z,93.80
2022-08-14T04:48:36.706Z,93.80
2022-08-14T04:51:14.119Z,93.90
2022-08-14T04:53:43.751Z,94.00
2022-08-14T04:56:31.444Z,94.10
2022-08-14T04:59:09.666Z,94.20
2022-08-14T05:01:48.874Z,94.30
2022-08-14T05:04:21.905Z,94.40
2022-08-14T05:06:54.317Z,94.50
2022-08-14T05:09:23.660Z,94.60
2022-08-14T05:11:51.409Z,94.70
2022-08-14T05:14:45.991Z,94.70
2022-08-14T05:17:10.768Z,94.70
2022-08-14T05:19:44.579Z,94.70
2022-08-14T05:22:27.021Z,94.70
2022-08-14T05:24:54.233Z,94.70
2022-08-14T05:27:22.789Z,94.70
2022-08-14T05:29:53.026Z,94.70
2022-08-14T05:32:20.122Z,94.70
2022-08-14T05:34:47.284Z,94.60
2022-08-14T05:37:15.225Z,94.50
2022-08-14T05:39:43.177Z,94.40
2022-08-14T05:42:22.228Z,94.20
2022-08-14T05:44:55.200Z,94.10
2022-08-14T05:47:22.922Z,93.90
2022-08-14T05:49:50.544Z,93.80
2022-08-14T05:52:18.836Z,93.70
2022-08-14T05:54:53.383Z,93.70
2022-08-14T05:57:20.872Z,93.60
2022-08-14T05:59:48.384Z,93.40
2022-08-14T06:02:15.112Z,93.30
2022-08-14T06:04:48.245Z,93.20
2022-08-14T06:07:16.181Z,93.10
2022-08-14T06:09:43.117Z,93.00
2022-08-14T06:12:55.239Z,92.90
2022-08-14T06:15:08.112Z,92.80
2022-08-14T06:17:55.853Z,92.80
2022-08-14T06:20:27.924Z,92.70
2022-08-14T06:22:55.555Z,92.70
2022-08-14T06:25:25.039Z,92.50
2022-08-14T06:27:52.920Z,92.40
2022-08-14T06:30:22.050Z,92.30
2022-08-14T06:32:53.019Z,92.20
2022-08-14T06:35:20.872Z,92.00
2022-08-14T06:37:50.190Z,91.90
2022-08-14T06:40:27.046Z,91.70
2022-08-14T06:42:56.790Z,91.40
2022-08-14T06:45:27.982Z,91.30
2022-08-14T06:47:58.650Z,91.00
2022-08-14T06:50:28.565Z,90.90
2022-08-14T06:53:00.399Z,90.80
2022-08-14T06:55:28.215Z,90.60
2022-08-14T06:57:57.714Z,90.40
2022-08-14T07:00:30.809Z,90.30
2022-08-14T07:03:17.932Z,90.00
2022-08-14T07:05:55.936Z,89.70
2022-08-14T07:08:31.571Z,89.70
2022-08-14T07:11:03.831Z,89.40
2022-08-14T07:13:31.165Z,89.10
2022-08-14T07:16:00.746Z,89.20
2022-08-14T07:18:34.329Z,88.40
2022-08-14T07:21:02.410Z,87.70
2022-08-14T07:23:31.205Z,86.90
2022-08-14T07:26:00.098Z,86.30
2022-08-14T07:28:33.451Z,85.90
2022-08-14T07:31:05.840Z,85.60
2022-08-14T07:33:50.770Z,85.00
2022-08-14T07:36:27.664Z,85.00
2022-08-14T07:39:03.387Z,85.20
2022-08-14T07:41:42.385Z,84.00
2022-08-14T07:44:29.687Z,83.80
2022-08-14T07:46:58.127Z,83.60
2022-08-14T07:49:25.422Z,82.90
2022-08-14T07:51:52.771Z,82.70
2022-08-14T07:54:23.658Z,81.80
2022-08-14T07:57:06.304Z,81.60
2022-08-14T07:59:42.182Z,81.50
2022-08-14T08:02:18.922Z,81.20
2022-08-14T08:04:50.426Z,81.20
2022-08-14T08:07:21.759Z,80.30
2022-08-14T08:09:54.461Z,79.80
2022-08-14T08:12:26.146Z,80.00
2022-08-14T08:15:05.974Z,79.80
2022-08-14T08:17:38.725Z,79.70
2022-08-14T08:20:19.957Z,79.30
2022-08-14T08:22:49.895Z,78.70
2022-08-14T08:25:24.669Z,78.80
2022-08-14T08:28:07.980Z,79.60
2022-08-14T08:30:37.719Z,79.00
2022-08-14T08:33:16.747Z,78.40
2022-08-14T08:35:50.456Z,77.50
2022-08-14T08:39:15.496Z,77.30
2022-08-14T08:41:11.153Z,77.40
2022-08-14T08:43:38.976Z,77.00
2022-08-14T08:46:18.599Z,77.20
2022-08-14T08:48:54.134Z,76.90
2022-08-14T08:51:30.977Z,76.90
2022-08-14T08:54:15.179Z,75.90
2022-08-14T08:56:52.003Z,74.70
2022-08-14T08:59:31.537Z,74.90
2022-08-14T09:02:06.999Z,74.90
2022-08-14T09:04:45.191Z,74.00
2022-08-14T09:07:26.180Z,72.40
2022-08-14T09:09:59.512Z,71.40
2022-08-14T09:12:32.557Z,71.50
2022-08-14T09:15:12.584Z,71.50
2022-08-14T09:17:41.489Z,71.40
2022-08-14T09:20:12.719Z,70.30
2022-08-14T09:22:48.142Z,70.90
2022-08-14T09:25:16.547Z,71.50
2022-08-14T09:27:43.546Z,71.10
2022-08-14T09:30:31.379Z,70.70
2022-08-14T09:33:11.777Z,69.20
2022-08-14T09:36:13.728Z,69.90
2022-08-14T09:39:05.307Z,68.40
2022-08-14T09:42:20.612Z,67.40
2022-08-14T09:45:08.919Z,65.70
2022-08-14T09:47:43.307Z,66.30
2022-08-14T09:50:50.473Z,64.70
2022-08-14T09:54:19.430Z,65.20
2022-08-14T09:56:30.286Z,63.50
2022-08-14T09:59:01.109Z,64.00
2022-08-14T10:01:37.520Z,65.70
2022-08-14T10:04:35.984Z,62.80
2022-08-14T10:07:05.729Z,62.50
2022-08-14T10:09:34.873Z,62.70
2022-08-14T10:12:04.739Z,62.40
2022-08-14T10:14:36.576Z,62.10
2022-08-14T10:17:06.549Z,61.60
2022-08-14T10:19:36.567Z,62.40
2022-08-14T10:23:12.373Z,62.90
2022-08-14T10:24:54.771Z,64.20
2022-08-14T10:27:24.821Z,61.80
2022-08-14T10:30:03.803Z,59.80
2022-08-14T10:32:39.983Z,60.20
2022-08-14T10:35:14.055Z,59.70
2022-08-14T10:37:52.623Z,59.70
2022-08-14T10:40:43.404Z,58.60
2022-08-14T10:43:26.636Z,58.40
2022-08-14T10:46:21.826Z,57.60
2022-08-14T10:49:02.733Z,56.60
2022-08-14T10:51:34.289Z,57.30
2022-08-14T10:54:26.335Z,57.50
2022-08-14T10:56:57.792Z,58.50
2022-08-14T10:59:34.977Z,56.40
2022-08-14T11:02:45.152Z,55.10
2022-08-14T11:05:18.336Z,55.70
2022-08-14T11:07:55.301Z,55.10
2022-08-14T11:10:27.779Z,55.10
2022-08-14T11:12:57.925Z,54.70
2022-08-14T11:15:28.773Z,54.90
2022-08-14T11:18:01.248Z,55.20
2022-08-14T11:20:30.929Z,54.10
2022-08-14T11:23:00.876Z,54.40
2022-08-14T11:25:43.264Z,52.80
2022-08-14T11:28:14.867Z,53.90
2022-08-14T11:30:54.248Z,52.90
2022-08-14T11:33:29.414Z,54.30
2022-08-14T11:36:01.853Z,52.30
2022-08-14T11:38:35.731Z,50.70
2022-08-14T11:41:05.501Z,51.60
2022-08-14T11:43:56.030Z,52.00
2022-08-14T11:46:30.772Z,52.10
2022-08-14T11:49:06.419Z,51.00
2022-08-14T11:51:50.774Z,50.70
2022-08-14T11:54:34.431Z,50.40
2022-08-14T11:57:02.137Z,50.50
2022-08-14T11:59:32.794Z,50.40
2022-08-14T12:03:01.298Z,50.10
2022-08-14T12:05:04.235Z,49.20
2022-08-14T12:07:33.473Z,48.60
2022-08-14T12:10:27.129Z,49.20
2022-08-14T12:12:56.445Z,47.80
2022-08-14T12:15:34.887Z,47.20
2022-08-14T12:18:03.064Z,47.10
2022-08-14T12:20:37.486Z,46.70
2022-08-14T12:23:27.592Z,45.80
2022-08-14T12:26:32.044Z,45.00
2022-08-14T12:29:16.635Z,42.90
2022-08-14T12:31:47.411Z,43.10
2022-08-14T12:34:22.841Z,43.10
2022-08-14T12:37:12.349Z,42.90
2022-08-14T12:39:40.183Z,42.30
2022-08-14T12:42:07.648Z,41.50
2022-08-14T12:44:42.567Z,41.00
2022-08-14T12:47:15.191Z,41.00
2022-08-14T12:49:52.965Z,40.30
2022-08-14T12:52:36.277Z,40.40
2022-08-14T12:55:20.700Z,40.40
2022-08-14T12:57:49.395Z,41.10
2022-08-14T13:00:23.997Z,42.10
2022-08-14T13:02:55.424Z,42.50
2022-08-14T13:05:29.975Z,40.60
2022-08-14T13:07:59.357Z,40.80
2022-08-14T13:10:47.854Z,40.60
2022-08-14T13:13:18.086Z,40.80
2022-08-14T13:15:57.215Z,39.90
2022-08-14T13:18:27.941Z,39.30
2022-08-14T13:21:02.021Z,39.60
2022-08-14T13:23:33.764Z,38.90
2022-08-14T13:26:04.412Z,39.20
2022-08-14T13:28:39.831Z,40.10
2022-08-14T13:31:24.156Z,40.20
2022-08-14T13:33:57.733Z,40.10
2022-08-14T13:36:51.557Z,39.00
2022-08-14T13:39:17.062Z,39.10
2022-08-14T13:41:44.438Z,38.30
2022-08-14T13:44:25.352Z,39.20
2022-08-14T13:46:52.818Z,40.10
2022-08-14T13:49:19.607Z,39.10
2022-08-14T13:51:49.334Z,40.00
2022-08-14T13:54:21.190Z,39.70
2022-08-14T13:56:49.637Z,39.60
2022-08-14T13:59:20.531Z,39.70
2022-08-14T14:02:06.916Z,39.50
2022-08-14T14:04:49.261Z,40.00
2022-08-14T14:07:20.394Z,40.50
2022-08-14T14:09:51.129Z,38.40
2022-08-14T14:12:38.034Z,39.10
2022-08-14T14:15:09.637Z,39.30
2022-08-14T14:17:38.904Z,39.60
2022-08-14T14:20:15.204Z,40.50
2022-08-14T14:23:02.602Z,41.50
2022-08-14T14:25:45.878Z,41.80
2022-08-14T14:28:17.114Z,41.20
2022-08-14T14:30:57.152Z,41.90
2022-08-14T14:36:14.902Z,40.60
2022-08-14T14:38:44.216Z,41.60
2022-08-14T14:41:14.709Z,41.70
2022-08-14T14:43:48.030Z,41.60
2022-08-14T14:46:19.894Z,41.90
2022-08-14T14:48:54.469Z,42.20
2022-08-14T14:51:22.373Z,41.00
2022-08-14T14:53:49.326Z,41.50
2022-08-14T14:56:50.134Z,40.20
2022-08-14T14:59:04.625Z,41.10
2022-08-14T15:01:35.490Z,41.00
2022-08-14T15:04:08.041Z,41.40
2022-08-14T15:06:48.453Z,41.70
2022-08-14T15:09:17.634Z,41.90
2022-08-14T15:11:45.969Z,42.10
2022-08-14T15:14:56.349Z,41.90
2022-08-14T15:17:02.259Z,41.60
2022-08-14T15:19:29.666Z,42.80
2022-08-14T15:21:57.490Z,43.30
2022-08-14T15:24:26.524Z,42.80
2022-08-14T15:26:56.058Z,42.70
2022-08-14T15:29:23.040Z,43.20
2022-08-14T15:31:53.875Z,43.40
2022-08-14T15:34:45.969Z,44.20
2022-08-14T15:37:12.618Z,42.80
2022-08-14T15:39:41.178Z,44.60
2022-08-14T15:42:14.884Z,44.80
2022-08-14T15:44:58.631Z,44.80
2022-08-14T15:47:30.012Z,44.80
2022-08-14T15:50:00.543Z,43.90
2022-08-14T15:52:35.237Z,43.90
2022-08-14T15:55:07.446Z,43.10
2022-08-14T15:57:35.701Z,43.20
2022-08-14T16:00:41.755Z,42.70
2022-08-14T16:03:15.537Z,42.50
2022-08-14T16:05:43.572Z,43.70
2022-08-14T16:08:27.149Z,44.20
2022-08-14T16:10:58.363Z,44.40
2022-08-14T16:13:39.362Z,44.80
2022-08-14T16:16:34.940Z,44.40
2022-08-14T16:19:14.291Z,43.90
2022-08-14T16:22:01.984Z,44.00
2022-08-14T16:25:02.429Z,44.60
2022-08-14T16:27:33.740Z,45.40
2022-08-14T16:30:05.440Z,45.30
2022-08-14T16:32:54.673Z,45.10
2022-08-14T16:35:19.892Z,44.70
2022-08-14T16:37:46.922Z,44.60
2022-08-14T16:40:19.328Z,44.80
2022-08-14T16:43:04.767Z,45.10
2022-08-14T16:45:43.905Z,44.80
2022-08-14T16:48:54.802Z,45.10
2022-08-14T16:51:06.716Z,45.10
2022-08-14T16:53:36.759Z,46.40
2022-08-14T16:56:23.522Z,45.60
2022-08-14T16:59:05.039Z,44.30
2022-08-14T17:01:32.150Z,44.70
2022-08-14T17:04:14.672Z,45.40
2022-08-14T17:06:54.949Z,45.90
2022-08-14T17:09:45.516Z,46.50
2022-08-14T17:12:33.726Z,47.10
2022-08-14T17:15:11.673Z,46.90
2022-08-14T17:17:58.061Z,46.90
2022-08-14T17:20:54.191Z,46.80
2022-08-14T17:23:14.503Z,47.10
2022-08-14T17:25:49.540Z,47.50
2022-08-14T17:28:51.395Z,48.20
2022-08-14T17:31:12.282Z,47.80
2022-08-14T17:33:40.499Z,48.00
2022-08-14T17:36:21.266Z,47.80
2022-08-14T17:39:06.537Z,48.10
2022-08-14T17:42:01.989Z,48.10
2022-08-14T17:44:44.825Z,48.20
2022-08-14T17:47:14.717Z,49.30
2022-08-14T17:49:51.492Z,49.90
2022-08-14T17:52:36.473Z,50.10
2022-08-14T17:55:12.715Z,51.20
2022-08-14T17:57:58.528Z,51.50
2022-08-14T18:00:33.128Z,51.80
2022-08-14T18:03:05.195Z,51.70
2022-08-14T18:06:09.669Z,52.00
2022-08-14T18:08:32.170Z,52.00
2022-08-14T18:11:03.356Z,52.40
2022-08-14T18:13:51.371Z,52.90
2022-08-14T18:16:22.990Z,52.60
2022-08-14T18:18:54.327Z,52.80
2022-08-14T18:21:56.139Z,53.50
2022-08-14T18:24:27.936Z,53.80
2022-08-14T18:27:06.959Z,54.00
2022-08-14T18:29:55.594Z,54.10
2022-08-14T18:32:31.556Z,54.50
2022-08-14T18:35:11.213Z,55.00
2022-08-14T18:37:41.285Z,55.10
2022-08-14T18:40:17.871Z,55.30
2022-08-14T18:42:52.491Z,55.80
2022-08-14T18:45:28.882Z,55.80
2022-08-14T18:48:20.613Z,56.10
2022-08-14T18:51:12.229Z,56.30
2022-08-14T18:54:01.569Z,57.10
2022-08-14T18:57:01.177Z,56.80
2022-08-14T18:59:43.214Z,56.90
2022-08-14T19:02:34.256Z,56.90
2022-08-14T19:05:09.579Z,57.00
2022-08-14T19:07:36.430Z,57.50
2022-08-14T19:10:10.234Z,57.70
2022-08-14T19:12:52.921Z,58.20
2022-08-14T19:15:27.335Z,58.20
2022-08-14T19:18:14.019Z,58.20
2022-08-14T19:20:59.033Z,58.20
2022-08-14T19:23:43.961Z,58.60
2022-08-14T19:26:36.818Z,58.70
2022-08-14T19:29:24.298Z,59.00
2022-08-14T19:31:55.431Z,60.20
2022-08-14T19:34:52.290Z,59.90
2022-08-14T19:37:55.369Z,59.70
2022-08-14T19:40:53.077Z,60.00
2022-08-14T19:43:55.323Z,60.50
2022-08-14T19:46:39.544Z,61.70
2022-08-14T19:48:58.429Z,61.10
2022-08-14T19:51:25.565Z,62.70
2022-08-14T19:54:13.654Z,62.70
2022-08-14T19:56:45.331Z,63.40
2022-08-14T19:59:19.152Z,62.80
2022-08-14T20:01:51.164Z,63.10
2022-08-14T20:04:46.113Z,63.40
2022-08-14T20:08:00.139Z,64.10
2022-08-14T20:11:05.558Z,64.10
2022-08-14T20:13:32.227Z,65.30
2022-08-14T20:16:07.039Z,64.90
2022-08-14T20:18:50.803Z,65.00
2022-08-14T20:21:19.922Z,65.50
2022-08-14T20:23:48.198Z,65.70
2022-08-14T20:26:32.031Z,66.30
2022-08-14T20:29:07.200Z,66.70
2022-08-14T20:31:36.920Z,66.80
2022-08-14T20:34:19.195Z,67.00
2022-08-14T20:37:09.858Z,67.20
2022-08-14T20:39:54.387Z,67.70
2022-08-14T20:42:43.805Z,67.90
2022-08-14T20:45:24.140Z,68.80
2022-08-14T20:48:09.007Z,69.60
2022-08-14T20:50:36.888Z,69.60
2022-08-14T20:53:34.069Z,71.90
2022-08-14T20:56:29.968Z,71.00
2022-08-14T20:58:57.396Z,71.10
2022-08-14T21:01:24.180Z,72.10
2022-08-14T21:04:01.004Z,72.30
2022-08-14T21:07:23.468Z,72.20
2022-08-14T21:10:05.158Z,72.20
2022-08-14T21:12:33.677Z,72.20
2022-08-14T21:15:00.833Z,73.10
2022-08-14T21:17:29.552Z,73.00
2022-08-14T21:19:56.629Z,72.60
2022-08-14T21:22:23.581Z,73.20
2022-08-14T21:25:02.197Z,73.80
2022-08-14T21:27:37.452Z,73.80
2022-08-14T21:30:08.537Z,75.30
2022-08-14T21:32:47.110Z,75.60
2022-08-14T21:35:18.700Z,75.80
2022-08-14T21:37:48.026Z,75.30
2022-08-14T21:40:31.630Z,75.40
2022-08-14T21:43:04.959Z,75.60
2022-08-14T21:45:35.642Z,76.20
2022-08-14T21:48:09.137Z,76.70
2022-08-14T21:51:00.409Z,77.00
2022-08-14T21:53:30.910Z,77.50
2022-08-14T21:55:58.510Z,77.90
2022-08-14T21:58:54.281Z,78.70
2022-08-14T22:01:16.024Z,79.10
2022-08-14T22:03:45.120Z,78.80
2022-08-14T22:06:21.264Z,79.30
2022-08-14T22:08:56.526Z,80.00
2022-08-14T22:11:23.438Z,80.10
2022-08-14T22:13:52.527Z,80.50
2022-08-14T22:17:03.279Z,81.10
2022-08-14T22:19:13.899Z,81.70
2022-08-14T22:21:44.035Z,82.40
2022-08-14T22:24:12.697Z,82.90
2022-08-14T22:27:01.418Z,83.20
2022-08-14T22:29:29.035Z,83.80
2022-08-14T22:31:55.991Z,84.80
2022-08-14T22:34:23.735Z,83.50
2022-08-14T22:36:51.134Z,83.30
2022-08-14T22:40:17.410Z,83.80
2022-08-14T22:42:21.117Z,84.20
2022-08-14T22:44:51.871Z,84.60
2022-08-14T22:47:24.788Z,85.40
2022-08-14T22:50:31.464Z,85.90
2022-08-14T22:52:39.376Z,86.10
2022-08-14T22:55:07.472Z,86.40
2022-08-14T22:57:41.709Z,86.20
2022-08-14T23:00:20.452Z,86.20
2022-08-14T23:02:58.185Z,86.80
2022-08-14T23:05:39.019Z,87.20
2022-08-14T23:08:59.940Z,87.80
2022-08-14T23:11:04.041Z,86.90
2022-08-14T23:13:32.751Z,86.80
2022-08-14T23:16:00.758Z,86.80
2022-08-14T23:18:29.774Z,87.00
2022-08-14T23:20:57.392Z,88.10
2022-08-14T23:23:24.290Z,89.20
2022-08-14T23:25:59.071Z,89.10
2022-08-14T23:28:56.961Z,89.00
2022-08-14T23:31:34.173Z,89.90
2022-08-14T23:34:06.860Z,89.50
2022-08-14T23:36:37.564Z,89.90
2022-08-14T23:39:19.647Z,90.00
2022-08-14T23:41:52.798Z,89.90
2022-08-14T23:44:22.899Z,90.00
2022-08-14T23:46:56.517Z,90.20
2022-08-14T23:49:25.202Z,90.40
2022-08-14T23:52:49.515Z,90.60
2022-08-14T23:54:48.475Z,90.60
2022-08-14T23:57:19.019Z,90.60
2022-08-14T23:59:54.924Z,90.60
